sensor_id;sensor_type;location;lat;lon;timestamp;pressure;altitude;pressure_sealevel;temperature;humidity
36454;BME280;22478;51.740;-1.314;2024-01-15T00:00:22;99791.84;;;-4.85;100.00
36454;BME280;22478;51.740;-1.314;2024-01-15T00:02:49;99774.21;;;-0.43;96.25
36454;BME280;22478;51.740;-1.314;2024-01-15T00:05:16;99772.68;;;-1.29;92.78
36454;BME280;22478;51.740;-1.314;2024-01-15T00:07:44;99763.13;;;-0.54;90.72
36454;BME280;22478;51.740;-1.314;2024-01-15T00:10:11;99761.00;;;-0.08;87.80
36454;BME280;22478;51.740;-1.314;2024-01-15T00:12:38;99758.51;;;-0.23;84.19
36454;BME280;22478;51.740;-1.314;2024-01-15T00:15:06;99759.51;;;1.18;79.06
36454;BME280;22478;51.740;-1.314;2024-01-15T00:17:33;99755.30;;;-0.22;80.98
36454;BME280;22478;51.740;-1.314;2024-01-15T00:20:01;99753.61;;;0.26;81.71
36454;BME280;22478;51.740;-1.314;2024-01-15T00:22:28;99755.33;;;0.19;78.31
36454;BME280;22478;51.740;-1.314;2024-01-15T00:24:55;99763.33;;;-0.69;82.13
36454;BME280;22478;51.740;-1.314;2024-01-15T00:27:22;99779.73;;;-4.75;100.00
36454;BME280;22478;51.740;-1.314;2024-01-15T00:29:50;99768.77;;;-2.36;93.00
36454;BME280;22478;51.740;-1.314;2024-01-15T00:32:18;99762.91;;;-2.21;97.28
36454;BME280;22478;51.740;-1.314;2024-01-15T00:34:46;99758.10;;;-1.28;87.47
36454;BME280;22478;51.740;-1.314;2024-01-15T00:37:13;99760.72;;;-4.37;100.00
36454;BME280;22478;51.740;-1.314;2024-01-15T00:39:40;99747.04;;;-0.29;89.22
36454;BME280;22478;51.740;-1.314;2024-01-15T00:42:07;99745.01;;;-1.27;88.85
36454;BME280;22478;51.740;-1.314;2024-01-15T00:44:35;99740.40;;;-0.50;85.55
36454;BME280;22478;51.740;-1.314;2024-01-15T00:47:02;99745.72;;;-0.34;86.39
36454;BME280;22478;51.740;-1.314;2024-01-15T00:49:29;99748.77;;;-1.21;81.66
36454;BME280;22478;51.740;-1.314;2024-01-15T00:51:56;99750.69;;;-2.97;94.11
36454;BME280;22478;51.740;-1.314;2024-01-15T00:54:23;99750.93;;;-4.50;100.00
36454;BME280;22478;51.740;-1.314;2024-01-15T00:56:51;99754.32;;;-4.87;100.00
36454;BME280;22478;51.740;-1.314;2024-01-15T00:59:18;99751.97;;;-4.26;100.00
36454;BME280;22478;51.740;-1.314;2024-01-15T01:01:46;99742.94;;;-0.68;95.63
36454;BME280;22478;51.740;-1.314;2024-01-15T01:04:13;99740.06;;;-3.54;100.00
36454;BME280;22478;51.740;-1.314;2024-01-15T01:06:41;99747.15;;;-4.39;100.00
36454;BME280;22478;51.740;-1.314;2024-01-15T01:09:08;99745.43;;;-4.29;100.00
36454;BME280;22478;51.740;-1.314;2024-01-15T01:11:35;99735.10;;;-2.07;100.00
36454;BME280;22478;51.740;-1.314;2024-01-15T01:14:02;99727.00;;;-1.79;100.00
36454;BME280;22478;51.740;-1.314;2024-01-15T01:16:30;99730.05;;;-3.61;100.00
36454;BME280;22478;51.740;-1.314;2024-01-15T01:18:57;99741.80;;;-4.53;100.00
36454;BME280;22478;51.740;-1.314;2024-01-15T01:21:25;99745.83;;;-5.34;100.00
36454;BME280;22478;51.740;-1.314;2024-01-15T01:23:52;99747.02;;;-5.67;100.00
36454;BME280;22478;51.740;-1.314;2024-01-15T01:26:19;99741.30;;;-3.27;100.00
36454;BME280;22478;51.740;-1.314;2024-01-15T01:28:46;99735.28;;;-4.28;100.00
36454;BME280;22478;51.740;-1.314;2024-01-15T01:31:14;99732.77;;;-6.20;100.00
36454;BME280;22478;51.740;-1.314;2024-01-15T01:33:41;99729.00;;;-5.80;100.00
36454;BME280;22478;51.740;-1.314;2024-01-15T01:36:08;99720.81;;;-3.29;100.00
36454;BME280;22478;51.740;-1.314;2024-01-15T01:38:36;99727.90;;;-5.32;100.00
36454;BME280;22478;51.740;-1.314;2024-01-15T01:41:04;99723.02;;;-4.08;100.00
36454;BME280;22478;51.740;-1.314;2024-01-15T01:43:31;99724.24;;;-4.88;100.00
36454;BME280;22478;51.740;-1.314;2024-01-15T01:46:00;99721.88;;;-6.17;100.00
36454;BME280;22478;51.740;-1.314;2024-01-15T01:48:27;99720.60;;;-5.47;100.00
36454;BME280;22478;51.740;-1.314;2024-01-15T01:50:56;99724.26;;;-5.71;100.00
36454;BME280;22478;51.740;-1.314;2024-01-15T01:53:25;99721.49;;;-6.40;100.00
36454;BME280;22478;51.740;-1.314;2024-01-15T01:55:54;99720.39;;;-4.50;100.00
36454;BME280;22478;51.740;-1.314;2024-01-15T01:58:23;99723.79;;;-7.41;100.00
36454;BME280;22478;51.740;-1.314;2024-01-15T02:00:50;99717.06;;;-5.89;100.00
36454;BME280;22478;51.740;-1.314;2024-01-15T02:03:18;99713.99;;;-5.61;100.00
36454;BME280;22478;51.740;-1.314;2024-01-15T02:05:48;99723.32;;;-5.74;100.00
36454;BME280;22478;51.740;-1.314;2024-01-15T02:08:16;99724.13;;;-6.24;100.00
36454;BME280;22478;51.740;-1.314;2024-01-15T02:10:43;99718.48;;;-4.85;100.00
36454;BME280;22478;51.740;-1.314;2024-01-15T02:13:10;99723.29;;;-6.10;100.00
36454;BME280;22478;51.740;-1.314;2024-01-15T02:15:37;99725.09;;;-6.24;100.00
36454;BME280;22478;51.740;-1.314;2024-01-15T02:18:06;99722.79;;;-6.33;100.00
36454;BME280;22478;51.740;-1.314;2024-01-15T02:20:34;99723.31;;;-4.85;100.00
36454;BME280;22478;51.740;-1.314;2024-01-15T02:23:07;99723.35;;;-5.18;100.00
36454;BME280;22478;51.740;-1.314;2024-01-15T02:25:35;99726.24;;;-4.87;100.00
36454;BME280;22478;51.740;-1.314;2024-01-15T02:28:04;99724.53;;;-5.89;100.00
36454;BME280;22478;51.740;-1.314;2024-01-15T02:30:31;99727.33;;;-4.99;100.00
36454;BME280;22478;51.740;-1.314;2024-01-15T02:32:59;99727.53;;;-4.45;100.00
36454;BME280;22478;51.740;-1.314;2024-01-15T02:35:26;99720.67;;;-1.95;100.00
36454;BME280;22478;51.740;-1.314;2024-01-15T02:37:54;99730.95;;;-4.64;100.00
36454;BME280;22478;51.740;-1.314;2024-01-15T02:40:21;99731.25;;;-6.34;100.00
36454;BME280;22478;51.740;-1.314;2024-01-15T02:42:48;99730.24;;;-4.99;100.00
36454;BME280;22478;51.740;-1.314;2024-01-15T02:45:16;99720.36;;;-2.95;100.00
36454;BME280;22478;51.740;-1.314;2024-01-15T02:47:44;99731.89;;;-4.23;100.00
36454;BME280;22478;51.740;-1.314;2024-01-15T02:50:11;99733.36;;;-4.79;100.00
36454;BME280;22478;51.740;-1.314;2024-01-15T02:52:38;99719.89;;;-3.23;100.00
36454;BME280;22478;51.740;-1.314;2024-01-15T02:55:06;99730.18;;;-5.88;100.00
36454;BME280;22478;51.740;-1.314;2024-01-15T02:57:34;99729.41;;;-4.54;100.00
36454;BME280;22478;51.740;-1.314;2024-01-15T03:00:02;99730.35;;;-5.79;100.00
36454;BME280;22478;51.740;-1.314;2024-01-15T03:02:29;99727.04;;;-4.73;100.00
36454;BME280;22478;51.740;-1.314;2024-01-15T03:04:57;99725.25;;;-5.42;100.00
36454;BME280;22478;51.740;-1.314;2024-01-15T03:07:24;99721.86;;;-4.06;100.00
36454;BME280;22478;51.740;-1.314;2024-01-15T03:09:51;99724.20;;;-4.44;100.00
36454;BME280;22478;51.740;-1.314;2024-01-15T03:12:19;99726.68;;;-4.82;100.00
36454;BME280;22478;51.740;-1.314;2024-01-15T03:14:46;99726.44;;;-4.79;100.00
36454;BME280;22478;51.740;-1.314;2024-01-15T03:17:13;99725.31;;;-5.44;100.00
36454;BME280;22478;51.740;-1.314;2024-01-15T03:19:41;99723.51;;;-3.97;100.00
36454;BME280;22478;51.740;-1.314;2024-01-15T03:22:08;99727.08;;;-5.12;100.00
36454;BME280;22478;51.740;-1.314;2024-01-15T03:24:35;99719.75;;;-3.20;100.00
36454;BME280;22478;51.740;-1.314;2024-01-15T03:27:03;99728.91;;;-4.83;100.00
36454;BME280;22478;51.740;-1.314;2024-01-15T03:29:31;99726.30;;;-4.58;100.00
36454;BME280;22478;51.740;-1.314;2024-01-15T03:31:58;99722.39;;;-4.07;100.00
36454;BME280;22478;51.740;-1.314;2024-01-15T03:34:25;99711.39;;;-1.10;96.47
36454;BME280;22478;51.740;-1.314;2024-01-15T03:36:52;99719.21;;;-4.02;100.00
36454;BME280;22478;51.740;-1.314;2024-01-15T03:39:20;99710.40;;;-3.27;100.00
36454;BME280;22478;51.740;-1.314;2024-01-15T03:41:47;99715.52;;;-5.63;100.00
36454;BME280;22478;51.740;-1.314;2024-01-15T03:44:14;99725.71;;;-5.95;100.00
36454;BME280;22478;51.740;-1.314;2024-01-15T03:46:42;99717.14;;;-3.63;100.00
36454;BME280;22478;51.740;-1.314;2024-01-15T03:49:09;99722.40;;;-5.38;100.00
36454;BME280;22478;51.740;-1.314;2024-01-15T03:51:37;99721.47;;;-5.05;100.00
36454;BME280;22478;51.740;-1.314;2024-01-15T03:54:04;99706.86;;;-1.56;100.00
36454;BME280;22478;51.740;-1.314;2024-01-15T03:56:32;99708.18;;;-2.09;100.00
36454;BME280;22478;51.740;-1.314;2024-01-15T03:58:59;99706.40;;;-3.15;100.00
36454;BME280;22478;51.740;-1.314;2024-01-15T04:01:26;99718.94;;;-5.36;100.00
36454;BME280;22478;51.740;-1.314;2024-01-15T04:03:54;99715.58;;;-4.05;100.00
36454;BME280;22478;51.740;-1.314;2024-01-15T04:06:22;99711.90;;;-2.84;100.00
36454;BME280;22478;51.740;-1.314;2024-01-15T04:08:49;99714.93;;;-6.10;100.00
36454;BME280;22478;51.740;-1.314;2024-01-15T04:11:16;99711.54;;;-6.19;100.00
36454;BME280;22478;51.740;-1.314;2024-01-15T04:13:44;99708.90;;;-5.20;100.00
36454;BME280;22478;51.740;-1.314;2024-01-15T04:16:11;99706.77;;;-4.80;100.00
36454;BME280;22478;51.740;-1.314;2024-01-15T04:18:38;99703.07;;;-5.98;100.00
36454;BME280;22478;51.740;-1.314;2024-01-15T04:21:06;99698.62;;;-5.76;100.00
36454;BME280;22478;51.740;-1.314;2024-01-15T04:23:34;99703.00;;;-6.06;100.00
36454;BME280;22478;51.740;-1.314;2024-01-15T04:26:01;99702.67;;;-6.37;100.00
36454;BME280;22478;51.740;-1.314;2024-01-15T04:28:28;99699.45;;;-5.34;100.00
36454;BME280;22478;51.740;-1.314;2024-01-15T04:30:56;99705.36;;;-7.12;100.00
36454;BME280;22478;51.740;-1.314;2024-01-15T04:33:23;99710.29;;;-7.49;100.00
36454;BME280;22478;51.740;-1.314;2024-01-15T04:35:50;99709.17;;;-6.13;100.00
36454;BME280;22478;51.740;-1.314;2024-01-15T04:38:18;99714.43;;;-8.35;100.00
36454;BME280;22478;51.740;-1.314;2024-01-15T04:40:45;99713.30;;;-7.11;100.00
36454;BME280;22478;51.740;-1.314;2024-01-15T04:43:12;99708.87;;;-7.37;100.00
36454;BME280;22478;51.740;-1.314;2024-01-15T04:45:40;99714.37;;;-8.27;100.00
36454;BME280;22478;51.740;-1.314;2024-01-15T04:48:07;99715.45;;;-7.76;100.00
36454;BME280;22478;51.740;-1.314;2024-01-15T04:50:34;99715.42;;;-7.89;100.00
36454;BME280;22478;51.740;-1.314;2024-01-15T04:53:02;99721.65;;;-7.91;100.00
36454;BME280;22478;51.740;-1.314;2024-01-15T04:55:29;99718.88;;;-7.24;100.00
36454;BME280;22478;51.740;-1.314;2024-01-15T04:57:56;99728.15;;;-6.59;100.00
36454;BME280;22478;51.740;-1.314;2024-01-15T05:00:24;99734.43;;;-6.98;100.00
36454;BME280;22478;51.740;-1.314;2024-01-15T05:02:51;99740.84;;;-8.11;100.00
36454;BME280;22478;51.740;-1.314;2024-01-15T05:05:19;99733.42;;;-7.67;100.00
36454;BME280;22478;51.740;-1.314;2024-01-15T05:07:46;99728.66;;;-7.30;100.00
36454;BME280;22478;51.740;-1.314;2024-01-15T05:10:14;99722.89;;;-7.59;100.00
36454;BME280;22478;51.740;-1.314;2024-01-15T05:12:41;99725.02;;;-8.11;100.00
36454;BME280;22478;51.740;-1.314;2024-01-15T05:15:08;99723.53;;;-8.82;100.00
36454;BME280;22478;51.740;-1.314;2024-01-15T05:17:36;99724.27;;;-7.40;100.00
36454;BME280;22478;51.740;-1.314;2024-01-15T05:20:04;99727.85;;;-7.76;100.00
36454;BME280;22478;51.740;-1.314;2024-01-15T05:22:31;99729.95;;;-8.23;100.00
36454;BME280;22478;51.740;-1.314;2024-01-15T05:24:59;99734.02;;;-8.86;100.00
36454;BME280;22478;51.740;-1.314;2024-01-15T05:27:26;99733.29;;;-8.77;100.00
36454;BME280;22478;51.740;-1.314;2024-01-15T05:29:53;99734.11;;;-8.36;100.00
36454;BME280;22478;51.740;-1.314;2024-01-15T05:32:21;99729.03;;;-9.81;100.00
36454;BME280;22478;51.740;-1.314;2024-01-15T05:34:48;99726.08;;;-8.56;100.00
36454;BME280;22478;51.740;-1.314;2024-01-15T05:37:15;99728.25;;;-9.08;100.00
36454;BME280;22478;51.740;-1.314;2024-01-15T05:39:43;99727.30;;;-9.43;100.00
36454;BME280;22478;51.740;-1.314;2024-01-15T05:42:10;99721.67;;;-8.14;100.00
36454;BME280;22478;51.740;-1.314;2024-01-15T05:44:38;99723.36;;;-8.53;100.00
36454;BME280;22478;51.740;-1.314;2024-01-15T05:47:05;99717.33;;;-8.32;100.00
36454;BME280;22478;51.740;-1.314;2024-01-15T05:49:32;99719.04;;;-8.53;100.00
36454;BME280;22478;51.740;-1.314;2024-01-15T05:52:00;99717.48;;;-8.94;100.00
36454;BME280;22478;51.740;-1.314;2024-01-15T05:54:27;99724.00;;;-9.40;100.00
36454;BME280;22478;51.740;-1.314;2024-01-15T05:56:54;99733.31;;;-8.64;100.00
36454;BME280;22478;51.740;-1.314;2024-01-15T05:59:22;99729.88;;;-8.42;100.00
36454;BME280;22478;51.740;-1.314;2024-01-15T06:01:49;99735.66;;;-9.33;100.00
36454;BME280;22478;51.740;-1.314;2024-01-15T06:04:16;99738.01;;;-9.38;100.00
36454;BME280;22478;51.740;-1.314;2024-01-15T06:06:44;99733.63;;;-8.71;100.00
36454;BME280;22478;51.740;-1.314;2024-01-15T06:09:11;99741.93;;;-9.42;100.00
36454;BME280;22478;51.740;-1.314;2024-01-15T06:11:39;99740.61;;;-9.44;100.00
36454;BME280;22478;51.740;-1.314;2024-01-15T06:14:06;99741.23;;;-8.91;100.00
36454;BME280;22478;51.740;-1.314;2024-01-15T06:16:33;99743.48;;;-8.32;100.00
36454;BME280;22478;51.740;-1.314;2024-01-15T06:19:01;99743.33;;;-8.79;100.00
36454;BME280;22478;51.740;-1.314;2024-01-15T06:21:28;99747.39;;;-8.47;100.00
36454;BME280;22478;51.740;-1.314;2024-01-15T06:23:55;99742.89;;;-9.53;100.00
36454;BME280;22478;51.740;-1.314;2024-01-15T06:26:23;99746.15;;;-9.47;100.00
36454;BME280;22478;51.740;-1.314;2024-01-15T06:28:50;99748.37;;;-8.31;100.00
36454;BME280;22478;51.740;-1.314;2024-01-15T06:31:18;99743.29;;;-7.91;100.00
36454;BME280;22478;51.740;-1.314;2024-01-15T06:33:45;99738.02;;;-7.05;100.00
36454;BME280;22478;51.740;-1.314;2024-01-15T06:36:12;99729.98;;;-7.51;100.00
36454;BME280;22478;51.740;-1.314;2024-01-15T06:38:39;99734.21;;;-8.97;100.00
36454;BME280;22478;51.740;-1.314;2024-01-15T06:41:07;99726.56;;;-7.38;100.00
36454;BME280;22478;51.740;-1.314;2024-01-15T06:43:34;99735.67;;;-7.66;100.00
36454;BME280;22478;51.740;-1.314;2024-01-15T06:46:02;99724.47;;;-5.31;100.00
36454;BME280;22478;51.740;-1.314;2024-01-15T06:48:29;99725.64;;;-6.86;100.00
36454;BME280;22478;51.740;-1.314;2024-01-15T06:50:56;99725.61;;;-7.31;100.00
36454;BME280;22478;51.740;-1.314;2024-01-15T06:53:24;99716.80;;;-6.00;100.00
36454;BME280;22478;51.740;-1.314;2024-01-15T06:55:51;99726.73;;;-6.22;100.00
36454;BME280;22478;51.740;-1.314;2024-01-15T06:58:19;99732.24;;;-5.77;100.00
36454;BME280;22478;51.740;-1.314;2024-01-15T07:00:46;99726.10;;;-4.31;100.00
36454;BME280;22478;51.740;-1.314;2024-01-15T07:03:13;99729.82;;;-4.70;100.00
36454;BME280;22478;51.740;-1.314;2024-01-15T07:05:41;99724.98;;;-4.65;100.00
36454;BME280;22478;51.740;-1.314;2024-01-15T07:08:08;99719.75;;;-3.08;100.00
36454;BME280;22478;51.740;-1.314;2024-01-15T07:10:35;99725.70;;;-4.92;100.00
36454;BME280;22478;51.740;-1.314;2024-01-15T07:13:03;99736.27;;;-4.35;100.00
36454;BME280;22478;51.740;-1.314;2024-01-15T07:15:30;99727.63;;;-2.57;98.35
36454;BME280;22478;51.740;-1.314;2024-01-15T07:17:57;99743.19;;;-3.81;100.00
36454;BME280;22478;51.740;-1.314;2024-01-15T07:20:25;99743.58;;;-1.84;94.14
36454;BME280;22478;51.740;-1.314;2024-01-15T07:22:52;99753.12;;;-3.37;100.00
36454;BME280;22478;51.740;-1.314;2024-01-15T07:25:19;99756.44;;;-6.86;100.00
36454;BME280;22478;51.740;-1.314;2024-01-15T07:27:46;99756.07;;;-7.52;100.00
36454;BME280;22478;51.740;-1.314;2024-01-15T07:30:14;99751.04;;;-7.31;100.00
36454;BME280;22478;51.740;-1.314;2024-01-15T07:32:41;99753.69;;;-7.38;100.00
36454;BME280;22478;51.740;-1.314;2024-01-15T07:35:08;99754.60;;;-7.08;100.00
36454;BME280;22478;51.740;-1.314;2024-01-15T07:37:36;99748.97;;;-7.02;100.00
36454;BME280;22478;51.740;-1.314;2024-01-15T07:40:04;99748.21;;;-5.75;100.00
36454;BME280;22478;51.740;-1.314;2024-01-15T07:42:31;99754.61;;;-7.64;100.00
36454;BME280;22478;51.740;-1.314;2024-01-15T07:44:59;99751.51;;;-6.84;100.00
36454;BME280;22478;51.740;-1.314;2024-01-15T07:47:26;99749.06;;;-4.37;100.00
36454;BME280;22478;51.740;-1.314;2024-01-15T07:49:53;99751.31;;;-4.80;100.00
36454;BME280;22478;51.740;-1.314;2024-01-15T07:52:20;99763.69;;;-7.56;100.00
36454;BME280;22478;51.740;-1.314;2024-01-15T07:54:48;99769.27;;;-7.40;100.00
36454;BME280;22478;51.740;-1.314;2024-01-15T07:57:15;99778.02;;;-7.97;100.00
36454;BME280;22478;51.740;-1.314;2024-01-15T07:59:42;99761.54;;;-3.88;100.00
36454;BME280;22478;51.740;-1.314;2024-01-15T08:02:10;99782.39;;;-7.80;100.00
36454;BME280;22478;51.740;-1.314;2024-01-15T08:04:37;99783.93;;;-5.37;100.00
36454;BME280;22478;51.740;-1.314;2024-01-15T08:07:04;99795.32;;;-8.40;100.00
36454;BME280;22478;51.740;-1.314;2024-01-15T08:09:32;99796.89;;;-7.82;100.00
36454;BME280;22478;51.740;-1.314;2024-01-15T08:11:59;99790.98;;;-6.70;100.00
36454;BME280;22478;51.740;-1.314;2024-01-15T08:14:26;99801.03;;;-7.09;100.00
36454;BME280;22478;51.740;-1.314;2024-01-15T08:16:54;99806.69;;;-7.39;100.00
36454;BME280;22478;51.740;-1.314;2024-01-15T08:19:21;99817.24;;;-7.81;100.00
36454;BME280;22478;51.740;-1.314;2024-01-15T08:21:49;99813.95;;;-7.85;100.00
36454;BME280;22478;51.740;-1.314;2024-01-15T08:24:16;99819.16;;;-9.43;100.00
36454;BME280;22478;51.740;-1.314;2024-01-15T08:26:43;99820.19;;;-9.17;100.00
36454;BME280;22478;51.740;-1.314;2024-01-15T08:29:11;99821.86;;;-9.96;100.00
36454;BME280;22478;51.740;-1.314;2024-01-15T08:31:38;99819.93;;;-9.14;100.00
36454;BME280;22478;51.740;-1.314;2024-01-15T08:34:05;99824.29;;;-8.54;100.00
36454;BME280;22478;51.740;-1.314;2024-01-15T08:36:33;99820.75;;;-8.38;100.00
36454;BME280;22478;51.740;-1.314;2024-01-15T08:39:00;99823.22;;;-7.72;100.00
36454;BME280;22478;51.740;-1.314;2024-01-15T08:41:27;99831.80;;;-8.73;100.00
36454;BME280;22478;51.740;-1.314;2024-01-15T08:43:55;99841.95;;;-7.47;100.00
36454;BME280;22478;51.740;-1.314;2024-01-15T08:46:22;99844.31;;;-8.61;100.00
36454;BME280;22478;51.740;-1.314;2024-01-15T08:48:50;99840.60;;;-7.89;100.00
36454;BME280;22478;51.740;-1.314;2024-01-15T08:51:17;99843.31;;;-8.99;100.00
36454;BME280;22478;51.740;-1.314;2024-01-15T08:53:44;99851.23;;;-9.13;100.00
36454;BME280;22478;51.740;-1.314;2024-01-15T08:56:12;99850.94;;;-8.08;100.00
36454;BME280;22478;51.740;-1.314;2024-01-15T08:58:39;99847.98;;;-7.36;100.00
36454;BME280;22478;51.740;-1.314;2024-01-15T09:01:06;99854.49;;;-9.26;100.00
36454;BME280;22478;51.740;-1.314;2024-01-15T09:03:34;99862.78;;;-7.93;100.00
36454;BME280;22478;51.740;-1.314;2024-01-15T09:06:01;99872.14;;;-8.31;100.00
36454;BME280;22478;51.740;-1.314;2024-01-15T09:08:29;99882.42;;;-9.50;100.00
36454;BME280;22478;51.740;-1.314;2024-01-15T09:10:56;99880.00;;;-8.93;100.00
36454;BME280;22478;51.740;-1.314;2024-01-15T09:13:23;99881.55;;;-9.48;100.00
36454;BME280;22478;51.740;-1.314;2024-01-15T09:15:51;99886.95;;;-8.19;100.00
36454;BME280;22478;51.740;-1.314;2024-01-15T09:18:18;99880.87;;;-5.69;100.00
36454;BME280;22478;51.740;-1.314;2024-01-15T09:20:45;99886.80;;;-7.22;100.00
36454;BME280;22478;51.740;-1.314;2024-01-15T09:23:13;99885.90;;;-7.13;100.00
36454;BME280;22478;51.740;-1.314;2024-01-15T09:25:40;99884.10;;;-8.06;100.00
36454;BME280;22478;51.740;-1.314;2024-01-15T09:28:07;99878.77;;;-8.56;100.00
36454;BME280;22478;51.740;-1.314;2024-01-15T09:30:35;99884.83;;;-7.76;100.00
36454;BME280;22478;51.740;-1.314;2024-01-15T09:33:02;99885.29;;;-7.87;100.00
36454;BME280;22478;51.740;-1.314;2024-01-15T09:35:29;99887.55;;;-8.37;100.00
36454;BME280;22478;51.740;-1.314;2024-01-15T09:37:57;99894.71;;;-8.62;100.00
36454;BME280;22478;51.740;-1.314;2024-01-15T09:40:25;99897.16;;;-7.89;100.00
36454;BME280;22478;51.740;-1.314;2024-01-15T09:42:57;99898.06;;;-7.95;100.00
36454;BME280;22478;51.740;-1.314;2024-01-15T09:45:24;99901.29;;;-8.41;100.00
36454;BME280;22478;51.740;-1.314;2024-01-15T09:47:51;99906.16;;;-7.99;100.00
36454;BME280;22478;51.740;-1.314;2024-01-15T09:50:19;99908.85;;;-7.63;100.00
36454;BME280;22478;51.740;-1.314;2024-01-15T09:52:46;99908.61;;;-7.96;100.00
36454;BME280;22478;51.740;-1.314;2024-01-15T09:55:15;99917.56;;;-6.98;100.00
36454;BME280;22478;51.740;-1.314;2024-01-15T09:57:44;99911.51;;;-7.70;100.00
36454;BME280;22478;51.740;-1.314;2024-01-15T10:00:12;99913.27;;;-8.13;100.00
36454;BME280;22478;51.740;-1.314;2024-01-15T10:02:40;99912.35;;;-5.40;100.00
36454;BME280;22478;51.740;-1.314;2024-01-15T10:05:08;99915.71;;;-6.77;100.00
36454;BME280;22478;51.740;-1.314;2024-01-15T10:07:37;99921.38;;;-6.86;100.00
36454;BME280;22478;51.740;-1.314;2024-01-15T10:10:05;99923.68;;;-7.77;100.00
36454;BME280;22478;51.740;-1.314;2024-01-15T10:12:33;99912.28;;;-6.02;100.00
36454;BME280;22478;51.740;-1.314;2024-01-15T10:15:00;99921.97;;;-6.88;100.00
36454;BME280;22478;51.740;-1.314;2024-01-15T10:17:28;99926.43;;;-7.83;100.00
36454;BME280;22478;51.740;-1.314;2024-01-15T10:19:56;99924.83;;;-8.05;100.00
36454;BME280;22478;51.740;-1.314;2024-01-15T10:22:23;99918.89;;;-7.44;100.00
36454;BME280;22478;51.740;-1.314;2024-01-15T10:24:51;99915.29;;;-8.05;100.00
36454;BME280;22478;51.740;-1.314;2024-01-15T10:27:18;99920.22;;;-7.75;100.00
36454;BME280;22478;51.740;-1.314;2024-01-15T10:29:46;99918.55;;;-8.12;100.00
36454;BME280;22478;51.740;-1.314;2024-01-15T10:32:13;99919.11;;;-6.68;100.00
36454;BME280;22478;51.740;-1.314;2024-01-15T10:34:41;99922.86;;;-8.57;100.00
36454;BME280;22478;51.740;-1.314;2024-01-15T10:37:09;99920.72;;;-7.35;100.00
36454;BME280;22478;51.740;-1.314;2024-01-15T10:39:36;99919.68;;;-8.21;100.00
36454;BME280;22478;51.740;-1.314;2024-01-15T10:42:04;99919.62;;;-8.35;100.00
36454;BME280;22478;51.740;-1.314;2024-01-15T10:44:31;99916.80;;;-7.87;100.00
36454;BME280;22478;51.740;-1.314;2024-01-15T10:46:58;99920.21;;;-7.60;100.00
36454;BME280;22478;51.740;-1.314;2024-01-15T10:49:26;99922.89;;;-8.24;100.00
36454;BME280;22478;51.740;-1.314;2024-01-15T10:51:53;99923.46;;;-7.35;100.00
36454;BME280;22478;51.740;-1.314;2024-01-15T10:54:21;99924.20;;;-8.17;100.00
36454;BME280;22478;51.740;-1.314;2024-01-15T10:56:50;99922.53;;;-7.59;100.00
36454;BME280;22478;51.740;-1.314;2024-01-15T10:59:20;99920.00;;;-7.66;100.00
36454;BME280;22478;51.740;-1.314;2024-01-15T11:01:48;99916.05;;;-7.54;100.00
36454;BME280;22478;51.740;-1.314;2024-01-15T11:04:16;99916.28;;;-7.90;100.00
36454;BME280;22478;51.740;-1.314;2024-01-15T11:06:45;99921.32;;;-8.12;100.00
36454;BME280;22478;51.740;-1.314;2024-01-15T11:09:13;99926.38;;;-8.05;100.00
36454;BME280;22478;51.740;-1.314;2024-01-15T11:11:42;99933.55;;;-8.74;100.00
36454;BME280;22478;51.740;-1.314;2024-01-15T11:14:10;99937.57;;;-7.64;100.00
36454;BME280;22478;51.740;-1.314;2024-01-15T11:16:57;99948.64;;;-7.78;100.00
36454;BME280;22478;51.740;-1.314;2024-01-15T11:19:25;99939.34;;;-7.31;100.00
36454;BME280;22478;51.740;-1.314;2024-01-15T11:21:52;99939.83;;;-5.56;100.00
36454;BME280;22478;51.740;-1.314;2024-01-15T11:24:51;99935.24;;;-7.10;100.00
36454;BME280;22478;51.740;-1.314;2024-01-15T11:27:39;99943.63;;;-6.22;100.00
36454;BME280;22478;51.740;-1.314;2024-01-15T11:30:08;99943.67;;;-6.11;100.00
36454;BME280;22478;51.740;-1.314;2024-01-15T11:32:36;99934.01;;;-5.26;97.13
36454;BME280;22478;51.740;-1.314;2024-01-15T11:35:03;99942.08;;;-5.62;100.00
36454;BME280;22478;51.740;-1.314;2024-01-15T11:37:57;99944.07;;;-6.65;100.00
36454;BME280;22478;51.740;-1.314;2024-01-15T11:40:41;99946.93;;;-5.99;100.00
36454;BME280;22478;51.740;-1.314;2024-01-15T11:43:08;99944.82;;;-6.27;98.11
36454;BME280;22478;51.740;-1.314;2024-01-15T11:45:36;99943.38;;;-4.93;92.68
36454;BME280;22478;51.740;-1.314;2024-01-15T11:48:11;99939.10;;;-3.81;83.78
36454;BME280;22478;51.740;-1.314;2024-01-15T11:50:41;99943.95;;;-4.70;79.07
36454;BME280;22478;51.740;-1.314;2024-01-15T11:53:16;99947.71;;;-5.78;81.82
36454;BME280;22478;51.740;-1.314;2024-01-15T11:55:44;99946.25;;;-3.52;80.88
36454;BME280;22478;51.740;-1.314;2024-01-15T11:58:12;99949.46;;;-4.33;76.17
36454;BME280;22478;51.740;-1.314;2024-01-15T12:00:40;99954.87;;;-6.10;83.23
36454;BME280;22478;51.740;-1.314;2024-01-15T12:03:09;99950.38;;;-5.77;83.31
36454;BME280;22478;51.740;-1.314;2024-01-15T12:05:37;99954.00;;;-5.01;76.12
36454;BME280;22478;51.740;-1.314;2024-01-15T12:08:05;99949.75;;;-5.19;78.28
36454;BME280;22478;51.740;-1.314;2024-01-15T12:10:32;99956.27;;;-4.33;70.35
36454;BME280;22478;51.740;-1.314;2024-01-15T12:13:02;99957.98;;;-4.35;70.54
36454;BME280;22478;51.740;-1.314;2024-01-15T12:15:32;99965.09;;;-4.71;70.31
36454;BME280;22478;51.740;-1.314;2024-01-15T12:18:02;99954.94;;;-2.72;63.23
36454;BME280;22478;51.740;-1.314;2024-01-15T12:20:30;99957.34;;;-3.81;67.37
36454;BME280;22478;51.740;-1.314;2024-01-15T12:22:58;99950.77;;;-3.46;62.51
36454;BME280;22478;51.740;-1.314;2024-01-15T12:25:26;99946.41;;;-2.94;57.54
36454;BME280;22478;51.740;-1.314;2024-01-15T12:27:54;99948.31;;;-3.17;58.53
36454;BME280;22478;51.740;-1.314;2024-01-15T12:30:22;99950.08;;;-2.88;60.00
36454;BME280;22478;51.740;-1.314;2024-01-15T12:32:50;99954.64;;;-2.81;54.44
36454;BME280;22478;51.740;-1.314;2024-01-15T12:35:18;99949.93;;;-1.15;54.89
36454;BME280;22478;51.740;-1.314;2024-01-15T12:37:45;99947.49;;;-0.97;51.58
36454;BME280;22478;51.740;-1.314;2024-01-15T12:40:19;99954.93;;;-3.46;59.97
36454;BME280;22478;51.740;-1.314;2024-01-15T12:42:47;99946.60;;;-3.38;54.55
36454;BME280;22478;51.740;-1.314;2024-01-15T12:45:15;99950.47;;;-2.90;55.53